sensor_id;sensor_type;location;lat;lon;timestamp;temperature;humidity
16968;DHT22;64862;54.398;10.126;2023-04-08T00:08:49;6.70;99.90
16968;DHT22;64862;54.398;10.126;2023-04-08T00:18:57;6.70;99.90
16968;DHT22;64862;54.398;10.126;2023-04-08T00:28:59;6.70;99.90
16968;DHT22;64862;54.398;10.126;2023-04-08T00:39:05;6.80;99.90
16968;DHT22;64862;54.398;10.126;2023-04-08T00:49:07;6.80;99.90
16968;DHT22;64862;54.398;10.126;2023-04-08T00:59:11;6.90;99.90
16968;DHT22;64862;54.398;10.126;2023-04-08T01:09:17;7.00;99.90
16968;DHT22;64862;54.398;10.126;2023-04-08T01:19:26;7.00;99.90
16968;DHT22;64862;54.398;10.126;2023-04-08T01:29:31;7.00;99.90
16968;DHT22;64862;54.398;10.126;2023-04-08T01:39:35;7.00;99.90
16968;DHT22;64862;54.398;10.126;2023-04-08T01:49:41;7.00;99.90
16968;DHT22;64862;54.398;10.126;2023-04-08T01:59:47;7.00;99.90
16968;DHT22;64862;54.398;10.126;2023-04-08T02:09:53;7.00;99.90
16968;DHT22;64862;54.398;10.126;2023-04-08T02:20:02;6.90;99.90
16968;DHT22;64862;54.398;10.126;2023-04-08T02:30:07;6.90;99.90
16968;DHT22;64862;54.398;10.126;2023-04-08T02:40:25;7.00;99.90
16968;DHT22;64862;54.398;10.126;2023-04-08T02:50:28;6.90;99.90
16968;DHT22;64862;54.398;10.126;2023-04-08T03:00:31;6.90;99.90
16968;DHT22;64862;54.398;10.126;2023-04-08T03:10:34;6.80;99.90
16968;DHT22;64862;54.398;10.126;2023-04-08T03:20:36;6.70;99.90
16968;DHT22;64862;54.398;10.126;2023-04-08T03:30:40;6.70;99.90
16968;DHT22;64862;54.398;10.126;2023-04-08T03:40:42;6.70;99.90
16968;DHT22;64862;54.398;10.126;2023-04-08T03:50:46;6.70;99.90
16968;DHT22;64862;54.398;10.126;2023-04-08T04:00:49;6.60;99.90
16968;DHT22;64862;54.398;10.126;2023-04-08T04:10:52;6.50;99.90
16968;DHT22;64862;54.398;10.126;2023-04-08T04:20:54;6.50;99.90
16968;DHT22;64862;54.398;10.126;2023-04-08T04:30:58;6.50;99.90
16968;DHT22;64862;54.398;10.126;2023-04-08T04:41:02;6.40;99.90
16968;DHT22;64862;54.398;10.126;2023-04-08T04:51:06;6.40;99.90
16968;DHT22;64862;54.398;10.126;2023-04-08T05:01:08;6.30;99.90
16968;DHT22;64862;54.398;10.126;2023-04-08T05:11:11;6.30;99.90
16968;DHT22;64862;54.398;10.126;2023-04-08T05:21:13;6.20;99.90
16968;DHT22;64862;54.398;10.126;2023-04-08T05:31:18;6.30;99.90
16968;DHT22;64862;54.398;10.126;2023-04-08T05:41:20;6.30;99.90
16968;DHT22;64862;54.398;10.126;2023-04-08T05:51:24;6.20;99.90
16968;DHT22;64862;54.398;10.126;2023-04-08T06:01:26;6.20;99.90
16968;DHT22;64862;54.398;10.126;2023-04-08T06:11:29;6.20;99.90
16968;DHT22;64862;54.398;10.126;2023-04-08T06:21:32;6.20;99.90
16968;DHT22;64862;54.398;10.126;2023-04-08T06:31:36;6.30;99.90
16968;DHT22;64862;54.398;10.126;2023-04-08T06:41:38;6.30;99.90
16968;DHT22;64862;54.398;10.126;2023-04-08T06:51:55;6.30;99.90
16968;DHT22;64862;54.398;10.126;2023-04-08T07:01:57;6.30;99.90
16968;DHT22;64862;54.398;10.126;2023-04-08T07:12:01;6.40;99.90
16968;DHT22;64862;54.398;10.126;2023-04-08T07:22:04;6.50;99.90
16968;DHT22;64862;54.398;10.126;2023-04-08T07:32:09;6.40;99.90
16968;DHT22;64862;54.398;10.126;2023-04-08T07:42:12;6.40;99.90
16968;DHT22;64862;54.398;10.126;2023-04-08T07:52:15;6.60;99.90
16968;DHT22;64862;54.398;10.126;2023-04-08T08:02:17;6.80;99.90
16968;DHT22;64862;54.398;10.126;2023-04-08T08:12:21;7.00;99.90
16968;DHT22;64862;54.398;10.126;2023-04-08T08:22:23;7.10;99.90
16968;DHT22;64862;54.398;10.126;2023-04-08T08:32:26;7.00;99.90
16968;DHT22;64862;54.398;10.126;2023-04-08T08:42:28;7.00;99.90
16968;DHT22;64862;54.398;10.126;2023-04-08T08:52:32;7.10;99.90
16968;DHT22;64862;54.398;10.126;2023-04-08T09:02:34;7.00;99.90
16968;DHT22;64862;54.398;10.126;2023-04-08T09:12:52;7.10;99.90
16968;DHT22;64862;54.398;10.126;2023-04-08T09:22:57;7.10;99.90
16968;DHT22;64862;54.398;10.126;2023-04-08T09:33:00;7.10;99.90
16968;DHT22;64862;54.398;10.126;2023-04-08T09:43:08;7.10;99.90
16968;DHT22;64862;54.398;10.126;2023-04-08T09:53:19;7.20;99.90
16968;DHT22;64862;54.398;10.126;2023-04-08T10:03:26;7.40;99.90
16968;DHT22;64862;54.398;10.126;2023-04-08T10:13:32;7.50;99.90
16968;DHT22;64862;54.398;10.126;2023-04-08T10:23:54;7.60;99.90
16968;DHT22;64862;54.398;10.126;2023-04-08T10:34:14;7.70;99.90
16968;DHT22;64862;54.398;10.126;2023-04-08T10:44:18;7.60;99.90
16968;DHT22;64862;54.398;10.126;2023-04-08T10:54:22;7.50;99.90
16968;DHT22;64862;54.398;10.126;2023-04-08T11:04:24;7.70;99.90
16968;DHT22;64862;54.398;10.126;2023-04-08T11:14:28;7.90;99.90
16968;DHT22;64862;54.398;10.126;2023-04-08T11:24:31;8.20;99.90
16968;DHT22;64862;54.398;10.126;2023-04-08T11:34:38;8.20;99.90
16968;DHT22;64862;54.398;10.126;2023-04-08T11:44:40;8.30;99.90
16968;DHT22;64862;54.398;10.126;2023-04-08T11:54:44;8.20;99.90
16968;DHT22;64862;54.398;10.126;2023-04-08T12:04:46;8.50;99.90
16968;DHT22;64862;54.398;10.126;2023-04-08T12:14:50;8.70;99.90
16968;DHT22;64862;54.398;10.126;2023-04-08T12:24:53;8.70;99.90
16968;DHT22;64862;54.398;10.126;2023-04-08T12:34:56;8.90;99.90
16968;DHT22;64862;54.398;10.126;2023-04-08T12:44:58;8.80;99.90
16968;DHT22;64862;54.398;10.126;2023-04-08T12:55:02;8.70;99.90
16968;DHT22;64862;54.398;10.126;2023-04-08T13:05:05;8.80;99.90
16968;DHT22;64862;54.398;10.126;2023-04-08T13:15:10;9.00;99.90
16968;DHT22;64862;54.398;10.126;2023-04-08T13:25:12;9.10;99.90
16968;DHT22;64862;54.398;10.126;2023-04-08T13:35:16;9.10;99.90
16968;DHT22;64862;54.398;10.126;2023-04-08T13:45:18;9.00;99.90
16968;DHT22;64862;54.398;10.126;2023-04-08T13:55:22;9.30;99.90
16968;DHT22;64862;54.398;10.126;2023-04-08T14:05:24;9.30;99.90
16968;DHT22;64862;54.398;10.126;2023-04-08T14:15:28;9.30;99.90
16968;DHT22;64862;54.398;10.126;2023-04-08T14:25:30;9.50;99.90
16968;DHT22;64862;54.398;10.126;2023-04-08T14:35:34;9.30;99.90
16968;DHT22;64862;54.398;10.126;2023-04-08T14:45:36;9.50;99.90
16968;DHT22;64862;54.398;10.126;2023-04-08T14:55:39;9.40;99.90
16968;DHT22;64862;54.398;10.126;2023-04-08T15:05:42;9.30;99.90
16968;DHT22;64862;54.398;10.126;2023-04-08T15:15:46;9.30;99.90
16968;DHT22;64862;54.398;10.126;2023-04-08T15:25:48;9.20;99.90
16968;DHT22;64862;54.398;10.126;2023-04-08T15:35:52;9.00;99.90
16968;DHT22;64862;54.398;10.126;2023-04-08T15:45:55;9.00;99.90
16968;DHT22;64862;54.398;10.126;2023-04-08T15:55:59;9.00;99.90
16968;DHT22;64862;54.398;10.126;2023-04-08T16:06:03;8.80;99.90
16968;DHT22;64862;54.398;10.126;2023-04-08T16:16:07;8.80;99.90
16968;DHT22;64862;54.398;10.126;2023-04-08T16:26:09;8.80;99.90
16968;DHT22;64862;54.398;10.126;2023-04-08T16:36:14;8.70;99.90
16968;DHT22;64862;54.398;10.126;2023-04-08T16:46:16;8.60;99.90
16968;DHT22;64862;54.398;10.126;2023-04-08T16:56:19;8.50;99.90
16968;DHT22;64862;54.398;10.126;2023-04-08T17:06:21;8.50;99.90
16968;DHT22;64862;54.398;10.126;2023-04-08T17:16:25;8.20;99.90
16968;DHT22;64862;54.398;10.126;2023-04-08T17:26:27;8.10;99.90
16968;DHT22;64862;54.398;10.126;2023-04-08T17:36:31;8.00;99.90
16968;DHT22;64862;54.398;10.126;2023-04-08T17:46:33;7.90;99.90
16968;DHT22;64862;54.398;10.126;2023-04-08T17:56:37;7.80;99.90
16968;DHT22;64862;54.398;10.126;2023-04-08T18:06:39;7.60;99.90
16968;DHT22;64862;54.398;10.126;2023-04-08T18:16:42;7.40;99.90
16968;DHT22;64862;54.398;10.126;2023-04-08T18:26:44;7.20;99.90
16968;DHT22;64862;54.398;10.126;2023-04-08T18:36:49;7.10;99.90
16968;DHT22;64862;54.398;10.126;2023-04-08T18:46:51;7.00;99.90
16968;DHT22;64862;54.398;10.126;2023-04-08T18:56:54;6.90;99.90
16968;DHT22;64862;54.398;10.126;2023-04-08T19:06:56;6.80;99.90
16968;DHT22;64862;54.398;10.126;2023-04-08T19:17:00;6.70;99.90
16968;DHT22;64862;54.398;10.126;2023-04-08T19:27:02;6.50;99.90
16968;DHT22;64862;54.398;10.126;2023-04-08T19:37:06;6.50;99.90
16968;DHT22;64862;54.398;10.126;2023-04-08T19:47:08;6.50;99.90
16968;DHT22;64862;54.398;10.126;2023-04-08T19:57:12;6.40;99.90
16968;DHT22;64862;54.398;10.126;2023-04-08T20:07:14;6.30;99.90
16968;DHT22;64862;54.398;10.126;2023-04-08T20:17:38;6.20;99.90
16968;DHT22;64862;54.398;10.126;2023-04-08T20:27:40;6.20;99.90
16968;DHT22;64862;54.398;10.126;2023-04-08T20:37:44;6.10;99.90
16968;DHT22;64862;54.398;10.126;2023-04-08T20:47:46;6.20;99.90
16968;DHT22;64862;54.398;10.126;2023-04-08T20:57:49;6.10;99.90
16968;DHT22;64862;54.398;10.126;2023-04-08T21:07:52;6.00;99.90
16968;DHT22;64862;54.398;10.126;2023-04-08T21:17:55;5.90;99.90
16968;DHT22;64862;54.398;10.126;2023-04-08T21:27:58;5.90;99.90
16968;DHT22;64862;54.398;10.126;2023-04-08T21:38:01;5.70;99.90
16968;DHT22;64862;54.398;10.126;2023-04-08T21:48:04;5.60;99.90
16968;DHT22;64862;54.398;10.126;2023-04-08T21:58:10;5.60;99.90
16968;DHT22;64862;54.398;10.126;2023-04-08T22:08:12;5.40;99.90
16968;DHT22;64862;54.398;10.126;2023-04-08T22:18:16;5.20;99.90
16968;DHT22;64862;54.398;10.126;2023-04-08T22:28:18;5.10;99.90
16968;DHT22;64862;54.398;10.126;2023-04-08T22:38:22;4.90;99.90
16968;DHT22;64862;54.398;10.126;2023-04-08T22:48:24;4.80;99.90
16968;DHT22;64862;54.398;10.126;2023-04-08T22:58:28;4.80;99.90
16968;DHT22;64862;54.398;10.126;2023-04-08T23:08:30;4.80;99.90
16968;DHT22;64862;54.398;10.126;2023-04-08T23:18:34;5.00;99.90
16968;DHT22;64862;54.398;10.126;2023-04-08T23:28:36;4.90;99.90
16968;DHT22;64862;54.398;10.126;2023-04-08T23:38:40;5.00;99.90
16968;DHT22;64862;54.398;10.126;2023-04-08T23:48:42;5.00;99.90
16968;DHT22;64862;54.398;10.126;2023-04-08T23:58:46;4.90;99.90
